Time,TemperatureF,DewpointF,PressureIn,WindDirection,WindDirectionDegrees,WindSpeedMPH,WindSpeedGustMPH,Humidity,HourlyPrecipIn,Conditions,Clouds,dailyrainin,SoftwareType,DateUTC
2013-05-28 00:01:00,68.4,59.0,30.26,ESE,117,2.0,5.0,72,0.00,,SKC,0.00,VWS V13.00,2013-05-28 04:01:00,
2013-05-28 00:06:00,68.2,58.8,30.26,ESE,117,1.0,5.0,72,0.00,,SKC,0.00,VWS V13.00,2013-05-28 04:06:00,
2013-05-28 00:11:00,68.1,58.7,30.26,ESE,115,1.0,5.0,72,0.00,,SKC,0.00,VWS V13.00,2013-05-28 04:11:00,
2013-05-28 00:16:00,68.1,58.7,30.26,ESE,115,1.0,5.0,72,0.00,,SKC,0.00,VWS V13.00,2013-05-28 04:16:00,
2013-05-28 00:21:00,68.0,58.7,30.26,ESE,110,1.0,5.0,72,0.00,,SKC,0.00,VWS V13.00,2013-05-28 04:21:00,
2013-05-28 00:26:00,68.1,58.7,30.26,ESE,117,1.0,5.0,72,0.00,,SKC,0.00,VWS V13.00,2013-05-28 04:26:00,
2013-05-28 00:31:00,68.1,59.1,30.26,SE,137,0.0,4.0,73,0.00,,SKC,0.00,VWS V13.00,2013-05-28 04:31:00,
2013-05-28 00:36:00,67.9,58.9,30.26,ESE,123,0.0,4.0,73,0.00,,SKC,0.00,VWS V13.00,2013-05-28 04:36:00,
2013-05-28 00:41:00,67.8,58.8,30.26,ESE,120,0.0,5.0,73,0.00,,SKC,0.00,VWS V13.00,2013-05-28 04:41:00,
2013-05-28 00:46:00,67.6,58.7,30.26,ESE,119,0.0,2.0,73,0.00,,SKC,0.00,VWS V13.00,2013-05-28 04:46:00,
2013-05-28 00:51:00,67.4,58.5,30.26,SE,130,0.0,2.0,73,0.00,,SKC,0.00,VWS V13.00,2013-05-28 04:51:00,
2013-05-28 00:56:00,67.2,58.3,30.26,SE,130,0.0,1.0,73,0.00,,SKC,0.00,VWS V13.00,2013-05-28 04:56:00,
2013-05-28 01:01:00,66.9,58.0,30.26,SE,130,0.0,1.0,73,0.00,,SKC,0.00,VWS V13.00,2013-05-28 05:01:00,
2013-05-28 01:06:00,66.7,57.8,30.26,SE,129,2.0,4.0,73,0.00,,SKC,0.00,VWS V13.00,2013-05-28 05:06:00,
2013-05-28 01:11:00,66.4,57.5,30.26,SE,129,0.0,1.0,73,0.00,,SKC,0.00,VWS V13.00,2013-05-28 05:11:00,
2013-05-28 01:16:00,66.2,57.3,30.26,SE,129,0.0,1.0,73,0.00,,SKC,0.00,VWS V13.00,2013-05-28 05:16:00,
2013-05-28 01:21:00,65.9,57.4,30.26,SE,129,1.0,2.0,74,0.00,,SKC,0.00,VWS V13.00,2013-05-28 05:21:00,
2013-05-28 01:26:00,65.8,57.3,30.26,SE,129,1.0,1.0,74,0.00,,SKC,0.00,VWS V13.00,2013-05-28 05:26:00,
2013-05-28 01:31:00,65.6,57.1,30.26,SE,129,0.0,0.0,74,0.00,,SKC,0.00,VWS V13.00,2013-05-28 05:31:00,
2013-05-28 01:36:00,65.4,56.9,30.26,SE,129,0.0,0.0,74,0.00,,SKC,0.00,VWS V13.00,2013-05-28 05:36:00,
2013-05-28 01:41:00,65.3,56.8,30.26,SE,129,0.0,0.0,74,0.00,,SKC,0.00,VWS V13.00,2013-05-28 05:41:00,
2013-05-28 01:46:00,65.0,56.5,30.25,SE,129,0.0,0.0,74,0.00,,SKC,0.00,VWS V13.00,2013-05-28 05:46:00,
2013-05-28 01:51:00,64.8,56.3,30.25,SE,129,0.0,0.0,74,0.00,,SKC,0.00,VWS V13.00,2013-05-28 05:51:00,
2013-05-28 01:56:00,64.6,56.1,30.25,SE,129,0.0,0.0,74,0.00,,SKC,0.00,VWS V13.00,2013-05-28 05:56:00,
2013-05-28 02:01:00,64.4,55.9,30.25,SE,129,0.0,0.0,74,0.00,,SKC,0.00,VWS V13.00,2013-05-28 06:01:00,
2013-05-28 02:06:00,64.2,55.8,30.25,SE,129,0.0,0.0,74,0.00,,SKC,0.00,VWS V13.00,2013-05-28 06:06:00,
2013-05-28 02:11:00,64.0,55.6,30.25,SE,129,0.0,0.0,74,0.00,,SKC,0.00,VWS V13.00,2013-05-28 06:11:00,
2013-05-28 02:16:00,63.8,55.7,30.25,SE,129,0.0,0.0,75,0.00,,SKC,0.00,VWS V13.00,2013-05-28 06:16:00,
2013-05-28 02:21:00,63.7,55.6,30.25,SE,129,0.0,0.0,75,0.00,,SKC,0.00,VWS V13.00,2013-05-28 06:21:00,
2013-05-28 02:26:00,63.5,55.4,30.25,SE,129,0.0,0.0,75,0.00,,SKC,0.00,VWS V13.00,2013-05-28 06:26:00,
2013-05-28 02:31:00,63.3,55.2,30.24,SE,129,0.0,0.0,75,0.00,,SKC,0.00,VWS V13.00,2013-05-28 06:31:00,
2013-05-28 02:36:00,63.1,55.1,30.24,SE,129,0.0,0.0,75,0.00,,SKC,0.00,VWS V13.00,2013-05-28 06:36:00,
2013-05-28 02:41:00,63.0,55.0,30.24,SE,129,0.0,0.0,75,0.00,,SKC,0.00,VWS V13.00,2013-05-28 06:41:00,
2013-05-28 02:46:00,62.9,54.9,30.24,SE,129,0.0,0.0,75,0.00,,SKC,0.00,VWS V13.00,2013-05-28 06:46:00,
2013-05-28 02:51:00,62.8,54.8,30.24,SE,129,0.0,0.0,75,0.00,,SKC,0.00,VWS V13.00,2013-05-28 06:51:00,
2013-05-28 02:56:00,62.7,54.7,30.24,SE,129,0.0,0.0,75,0.00,,SKC,0.00,VWS V13.00,2013-05-28 06:56:00,
2013-05-28 03:01:00,62.6,54.6,30.24,SE,129,0.0,0.0,75,0.00,,SKC,0.00,VWS V13.00,2013-05-28 07:01:00,
2013-05-28 03:06:00,62.6,54.6,30.24,SE,129,0.0,0.0,75,0.00,,SKC,0.00,VWS V13.00,2013-05-28 07:06:00,
2013-05-28 03:11:00,62.5,54.5,30.24,SE,129,0.0,0.0,75,0.00,,SKC,0.00,VWS V13.00,2013-05-28 07:11:00,
2013-05-28 03:16:00,62.4,54.4,30.24,SE,129,0.0,0.0,75,0.00,,SKC,0.00,VWS V13.00,2013-05-28 07:16:00,
2013-05-28 03:21:00,62.3,54.7,30.24,SE,129,0.0,0.0,76,0.00,,SKC,0.00,VWS V13.00,2013-05-28 07:21:00,
2013-05-28 03:26:00,62.2,54.5,30.24,SE,129,0.0,0.0,76,0.00,,SKC,0.00,VWS V13.00,2013-05-28 07:26:00,
2013-05-28 03:31:00,62.2,54.5,30.24,SE,129,0.0,0.0,76,0.00,,SKC,0.00,VWS V13.00,2013-05-28 07:31:00,
2013-05-28 03:36:00,62.2,54.5,30.24,SE,129,0.0,0.0,76,0.00,,SKC,0.00,VWS V13.00,2013-05-28 07:36:00,
2013-05-28 03:41:00,62.1,54.5,30.24,SE,129,0.0,0.0,76,0.00,,SKC,0.00,VWS V13.00,2013-05-28 07:41:00,
2013-05-28 03:46:00,62.1,54.5,30.24,SE,129,0.0,0.0,76,0.00,,SKC,0.00,VWS V13.00,2013-05-28 07:46:00,
2013-05-28 03:51:00,62.0,54.4,30.24,SE,129,0.0,0.0,76,0.00,,SKC,0.00,VWS V13.00,2013-05-28 07:51:00,
2013-05-28 03:56:00,61.9,54.3,30.24,SE,129,0.0,0.0,76,0.00,,SKC,0.00,VWS V13.00,2013-05-28 07:56:00,
2013-05-28 04:01:00,61.8,54.2,30.24,SE,129,0.0,0.0,76,0.00,,SKC,0.00,VWS V13.00,2013-05-28 08:01:00,
2013-05-28 04:06:00,61.8,54.2,30.24,SE,129,0.0,0.0,76,0.00,,SKC,0.00,VWS V13.00,2013-05-28 08:06:00,
2013-05-28 04:11:00,61.8,54.2,30.24,SE,129,0.0,0.0,76,0.00,,SKC,0.00,VWS V13.00,2013-05-28 08:11:00,
2013-05-28 04:16:00,61.8,54.2,30.24,SE,129,0.0,0.0,76,0.00,,SKC,0.00,VWS V13.00,2013-05-28 08:16:00,
2013-05-28 04:21:00,61.8,54.2,30.24,SE,129,0.0,0.0,76,0.00,,SKC,0.00,VWS V13.00,2013-05-28 08:21:00,
2013-05-28 04:26:00,61.7,54.1,30.25,SE,129,0.0,0.0,76,0.00,,SKC,0.00,VWS V13.00,2013-05-28 08:26:00,
2013-05-28 04:31:00,61.6,54.0,30.24,SE,129,0.0,0.0,76,0.00,,SKC,0.00,VWS V13.00,2013-05-28 08:31:00,
2013-05-28 04:36:00,61.5,54.2,30.24,SE,129,0.0,0.0,77,0.00,,SKC,0.00,VWS V13.00,2013-05-28 08:36:00,
2013-05-28 04:41:00,61.4,54.1,30.24,SE,129,0.0,0.0,77,0.00,,SKC,0.00,VWS V13.00,2013-05-28 08:41:00,
2013-05-28 04:46:00,61.4,54.1,30.24,SE,129,0.0,0.0,77,0.00,,SKC,0.00,VWS V13.00,2013-05-28 08:46:00,
2013-05-28 04:51:00,61.3,54.0,30.24,SE,129,0.0,0.0,77,0.00,,SKC,0.00,VWS V13.00,2013-05-28 08:51:00,
2013-05-28 04:56:00,61.4,54.1,30.24,SE,129,0.0,0.0,77,0.00,,SKC,0.00,VWS V13.00,2013-05-28 08:56:00,
2013-05-28 05:01:00,61.3,54.0,30.24,SE,129,0.0,0.0,77,0.00,,SKC,0.00,VWS V13.00,2013-05-28 09:01:00,
2013-05-28 05:06:00,61.3,54.0,30.24,SE,129,0.0,0.0,77,0.00,,SKC,0.00,VWS V13.00,2013-05-28 09:06:00,
2013-05-28 05:11:00,61.2,53.9,30.24,SE,129,0.0,0.0,77,0.00,,SKC,0.00,VWS V13.00,2013-05-28 09:11:00,
2013-05-28 05:16:00,61.2,53.9,30.24,SE,129,0.0,0.0,77,0.00,,SKC,0.00,VWS V13.00,2013-05-28 09:16:00,
2013-05-28 05:21:00,61.1,53.8,30.24,SE,129,0.0,0.0,77,0.00,,SKC,0.00,VWS V13.00,2013-05-28 09:21:00,
2013-05-28 05:26:00,61.1,53.8,30.24,SE,129,0.0,0.0,77,0.00,,SKC,0.00,VWS V13.00,2013-05-28 09:26:00,
2013-05-28 05:31:00,61.1,53.8,30.24,SE,129,0.0,0.0,77,0.00,,SKC,0.00,VWS V13.00,2013-05-28 09:31:00,
2013-05-28 05:36:00,61.2,53.9,30.24,SE,129,0.0,0.0,77,0.00,,SKC,0.00,VWS V13.00,2013-05-28 09:36:00,
2013-05-28 05:41:00,61.2,53.9,30.25,SE,129,0.0,0.0,77,0.00,,SKC,0.00,VWS V13.00,2013-05-28 09:41:00,
2013-05-28 05:46:00,61.3,54.0,30.25,SE,129,0.0,0.0,77,0.00,,SKC,0.00,VWS V13.00,2013-05-28 09:46:00,
2013-05-28 05:51:00,61.3,54.0,30.24,SE,129,0.0,1.0,77,0.00,,SKC,0.00,VWS V13.00,2013-05-28 09:51:00,
2013-05-28 05:56:00,61.4,54.1,30.24,SE,129,0.0,2.0,77,0.00,,SKC,0.00,VWS V13.00,2013-05-28 09:56:00,
2013-05-28 06:01:00,61.6,54.7,30.25,SE,129,0.0,1.0,78,0.00,,SKC,0.00,VWS V13.00,2013-05-28 10:01:00,
2013-05-28 06:06:00,61.6,54.7,30.25,SE,130,0.0,2.0,78,0.00,,SKC,0.00,VWS V13.00,2013-05-28 10:06:00,
2013-05-28 06:11:00,61.6,54.7,30.25,SE,132,0.0,2.0,78,0.00,,SKC,0.00,VWS V13.00,2013-05-28 10:11:00,
2013-05-28 06:16:00,61.8,54.9,30.25,SE,132,0.0,2.0,78,0.00,,SKC,0.00,VWS V13.00,2013-05-28 10:16:00,
2013-05-28 06:21:00,61.9,55.0,30.25,SE,132,0.0,2.0,78,0.00,,SKC,0.00,VWS V13.00,2013-05-28 10:21:00,
2013-05-28 06:26:00,62.2,55.3,30.26,SE,132,0.0,2.0,78,0.00,,SKC,0.00,VWS V13.00,2013-05-28 10:26:00,
2013-05-28 06:31:00,62.4,55.5,30.26,SE,132,0.0,0.0,78,0.00,,SKC,0.00,VWS V13.00,2013-05-28 10:31:00,
2013-05-28 06:36:00,62.5,55.6,30.26,SE,132,0.0,0.0,78,0.00,,SKC,0.00,VWS V13.00,2013-05-28 10:36:00,
2013-05-28 06:41:00,62.7,55.8,30.26,SE,132,0.0,0.0,78,0.00,,SKC,0.00,VWS V13.00,2013-05-28 10:41:00,
2013-05-28 06:46:00,63.0,56.0,30.26,SE,132,0.0,0.0,78,0.00,,SKC,0.00,VWS V13.00,2013-05-28 10:46:00,
2013-05-28 06:51:00,63.3,56.3,30.26,SE,132,0.0,0.0,78,0.00,,SKC,0.00,VWS V13.00,2013-05-28 10:51:00,
2013-05-28 06:56:00,63.6,56.6,30.26,SE,132,1.0,1.0,78,0.00,,SKC,0.00,VWS V13.00,2013-05-28 10:56:00,
2013-05-28 07:01:00,64.0,57.0,30.26,SE,132,1.0,2.0,78,0.00,,SKC,0.00,VWS V13.00,2013-05-28 11:01:00,
2013-05-28 07:06:00,64.4,57.4,30.26,SE,132,0.0,2.0,78,0.00,,SKC,0.00,VWS V13.00,2013-05-28 11:06:00,
2013-05-28 07:11:00,64.9,57.9,30.26,SE,138,2.0,4.0,78,0.00,,SKC,0.00,VWS V13.00,2013-05-28 11:11:00,
2013-05-28 07:16:00,65.3,58.6,30.26,SE,145,0.0,5.0,79,0.00,,SKC,0.00,VWS V13.00,2013-05-28 11:16:00,
2013-05-28 07:21:00,66.0,59.3,30.26,SE,140,2.0,4.0,79,0.00,,SKC,0.00,VWS V13.00,2013-05-28 11:21:00,
2013-05-28 07:26:00,66.7,60.0,30.26,SE,133,0.0,4.0,79,0.00,,SKC,0.00,VWS V13.00,2013-05-28 11:26:00,
2013-05-28 07:31:00,67.2,60.5,30.26,ESE,114,1.0,6.0,79,0.00,,SKC,0.00,VWS V13.00,2013-05-28 11:31:00,
2013-05-28 07:36:00,67.6,60.9,30.27,ESE,116,0.0,6.0,79,0.00,,SKC,0.00,VWS V13.00,2013-05-28 11:36:00,
2013-05-28 07:41:00,67.9,61.2,30.27,ESE,117,4.0,5.0,79,0.00,,SKC,0.00,VWS V13.00,2013-05-28 11:41:00,
2013-05-28 07:46:00,68.1,61.3,30.27,SE,138,1.0,7.0,79,0.00,,SKC,0.00,VWS V13.00,2013-05-28 11:46:00,
2013-05-28 07:51:00,68.4,61.6,30.27,SE,135,4.0,6.0,79,0.00,,SKC,0.00,VWS V13.00,2013-05-28 11:51:00,
2013-05-28 07:56:00,68.6,61.8,30.27,SE,130,5.0,7.0,79,0.00,,SKC,0.00,VWS V13.00,2013-05-28 11:56:00,
2013-05-28 08:01:00,68.9,62.1,30.27,ESE,118,4.0,7.0,79,0.00,,SKC,0.00,VWS V13.00,2013-05-28 12:01:00,
2013-05-28 08:06:00,69.2,62.4,30.27,SE,130,5.0,7.0,79,0.00,,SKC,0.00,VWS V13.00,2013-05-28 12:06:00,
2013-05-28 08:11:00,69.6,62.8,30.28,SE,126,4.0,6.0,79,0.00,,SKC,0.00,VWS V13.00,2013-05-28 12:11:00,
2013-05-28 08:16:00,70.0,62.8,30.28,ESE,121,1.0,7.0,78,0.00,,SKC,0.00,VWS V13.00,2013-05-28 12:16:00,
2013-05-28 08:21:00,70.3,63.5,30.28,ESE,112,2.0,5.0,79,0.00,,SKC,0.00,VWS V13.00,2013-05-28 12:21:00,
2013-05-28 08:26:00,70.6,63.4,30.28,East,89,3.0,6.0,78,0.00,,SKC,0.00,VWS V13.00,2013-05-28 12:26:00,
2013-05-28 08:31:00,71.0,63.8,30.28,ESE,105,2.0,5.0,78,0.00,,SKC,0.00,VWS V13.00,2013-05-28 12:31:00,
2013-05-28 08:36:00,71.3,64.1,30.29,SE,126,1.0,6.0,78,0.00,,SKC,0.00,VWS V13.00,2013-05-28 12:36:00,
2013-05-28 08:41:00,71.5,64.3,30.28,ESE,103,2.0,6.0,78,0.00,,SKC,0.00,VWS V13.00,2013-05-28 12:41:00,
2013-05-28 08:46:00,71.7,64.5,30.28,SSE,157,2.0,7.0,78,0.00,,SKC,0.00,VWS V13.00,2013-05-28 12:46:00,
2013-05-28 08:51:00,72.1,64.9,30.28,SE,134,5.0,6.0,78,0.00,,SKC,0.00,VWS V13.00,2013-05-28 12:51:00,
2013-05-28 08:56:00,72.5,65.3,30.28,East,90,4.0,6.0,78,0.00,,SKC,0.00,VWS V13.00,2013-05-28 12:56:00,
2013-05-28 09:01:00,73.0,65.7,30.28,East,98,4.0,7.0,78,0.00,,SKC,0.00,VWS V13.00,2013-05-28 13:01:00,
2013-05-28 09:06:00,73.2,65.6,30.28,ESE,118,5.0,8.0,77,0.00,,SKC,0.00,VWS V13.00,2013-05-28 13:06:00,
2013-05-28 09:11:00,73.5,65.9,30.29,ESE,120,7.0,9.0,77,0.00,,SKC,0.00,VWS V13.00,2013-05-28 13:11:00,
2013-05-28 09:16:00,73.6,65.9,30.29,SE,129,8.0,8.0,77,0.00,,SKC,0.00,VWS V13.00,2013-05-28 13:16:00,
2013-05-28 09:21:00,73.8,66.2,30.29,SE,135,4.0,8.0,77,0.00,,SKC,0.00,VWS V13.00,2013-05-28 13:21:00,
2013-05-28 09:26:00,74.0,66.0,30.30,ESE,102,5.0,8.0,76,0.00,,SKC,0.00,VWS V13.00,2013-05-28 13:26:00,
2013-05-28 09:31:00,74.3,66.2,30.30,East,94,4.0,7.0,76,0.00,,SKC,0.00,VWS V13.00,2013-05-28 13:31:00,
2013-05-28 09:36:00,74.6,66.5,30.30,ESE,112,4.0,6.0,76,0.00,,SKC,0.00,VWS V13.00,2013-05-28 13:36:00,
2013-05-28 09:41:00,74.8,66.3,30.30,ESE,119,7.0,8.0,75,0.00,,SKC,0.00,VWS V13.00,2013-05-28 13:41:00,
2013-05-28 09:46:00,74.9,66.4,30.30,East,96,6.0,8.0,75,0.00,,SKC,0.00,VWS V13.00,2013-05-28 13:46:00,
2013-05-28 09:51:00,75.1,66.6,30.30,ESE,120,6.0,8.0,75,0.00,,SKC,0.00,VWS V13.00,2013-05-28 13:51:00,
2013-05-28 09:56:00,75.3,66.8,30.30,ESE,122,6.0,9.0,75,0.00,,SKC,0.00,VWS V13.00,2013-05-28 13:56:00,
2013-05-28 10:01:00,75.3,66.4,30.30,ESE,109,6.0,8.0,74,0.00,,SKC,0.00,VWS V13.00,2013-05-28 14:01:00,
2013-05-28 10:06:00,75.5,66.6,30.30,East,93,6.0,9.0,74,0.00,,SKC,0.00,VWS V13.00,2013-05-28 14:06:00,
2013-05-28 10:11:00,75.6,66.7,30.30,East,90,6.0,8.0,74,0.00,,SKC,0.00,VWS V13.00,2013-05-28 14:11:00,
2013-05-28 10:16:00,76.0,66.7,30.30,SE,125,6.0,9.0,73,0.00,,SKC,0.00,VWS V13.00,2013-05-28 14:16:00,
2013-05-28 10:21:00,76.2,66.9,30.30,ESE,113,4.0,11.0,73,0.00,,SKC,0.00,VWS V13.00,2013-05-28 14:21:00,
2013-05-28 10:26:00,76.4,67.1,30.30,ESE,116,7.0,8.0,73,0.00,,SKC,0.00,VWS V13.00,2013-05-28 14:26:00,
2013-05-28 10:31:00,76.7,67.4,30.30,ESE,121,2.0,9.0,73,0.00,,SKC,0.00,VWS V13.00,2013-05-28 14:31:00,
2013-05-28 10:36:00,77.1,67.8,30.30,ESE,119,5.0,9.0,73,0.00,,SKC,0.00,VWS V13.00,2013-05-28 14:36:00,
2013-05-28 10:41:00,77.4,68.1,30.30,SE,138,7.0,8.0,73,0.00,,SKC,0.00,VWS V13.00,2013-05-28 14:41:00,
2013-05-28 10:46:00,77.2,67.5,30.30,ESE,107,6.0,9.0,72,0.00,,SKC,0.00,VWS V13.00,2013-05-28 14:46:00,
2013-05-28 10:51:00,77.1,67.4,30.30,ESE,114,7.0,9.0,72,0.00,,SKC,0.00,VWS V13.00,2013-05-28 14:51:00,
2013-05-28 10:56:00,76.9,67.2,30.30,ESE,113,5.0,9.0,72,0.00,,SKC,0.00,VWS V13.00,2013-05-28 14:56:00,
2013-05-28 11:01:00,77.0,67.3,30.30,East,101,7.0,8.0,72,0.00,,SKC,0.00,VWS V13.00,2013-05-28 15:01:00,
2013-05-28 11:06:00,77.3,67.6,30.30,ESE,122,6.0,7.0,72,0.00,,SKC,0.00,VWS V13.00,2013-05-28 15:06:00,
2013-05-28 11:11:00,77.5,67.8,30.30,ESE,112,7.0,9.0,72,0.00,,SKC,0.00,VWS V13.00,2013-05-28 15:11:00,
2013-05-28 11:16:00,77.6,67.9,30.30,ESE,110,8.0,8.0,72,0.00,,SKC,0.00,VWS V13.00,2013-05-28 15:16:00,
2013-05-28 11:21:00,77.7,68.0,30.30,ESE,120,6.0,11.0,72,0.00,,SKC,0.00,VWS V13.00,2013-05-28 15:21:00,
2013-05-28 11:26:00,77.7,68.0,30.30,ESE,113,9.0,11.0,72,0.00,,SKC,0.00,VWS V13.00,2013-05-28 15:26:00,
2013-05-28 11:31:00,77.6,67.9,30.30,ESE,121,8.0,11.0,72,0.00,,SKC,0.00,VWS V13.00,2013-05-28 15:31:00,
2013-05-28 11:36:00,77.7,68.4,30.30,SE,136,8.0,11.0,73,0.00,,SKC,0.00,VWS V13.00,2013-05-28 15:36:00,
2013-05-28 11:41:00,77.9,68.2,30.30,ESE,121,6.0,11.0,72,0.00,,SKC,0.00,VWS V13.00,2013-05-28 15:41:00,
2013-05-28 11:46:00,77.9,68.2,30.30,ESE,122,7.0,11.0,72,0.00,,SKC,0.00,VWS V13.00,2013-05-28 15:46:00,
2013-05-28 11:51:00,77.9,68.2,30.30,SE,134,5.0,9.0,72,0.00,,SKC,0.00,VWS V13.00,2013-05-28 15:51:00,
2013-05-28 11:56:00,77.9,68.2,30.30,ESE,110,5.0,8.0,72,0.00,,SKC,0.00,VWS V13.00,2013-05-28 15:56:00,
2013-05-28 12:01:00,78.2,68.8,30.30,SSE,166,2.0,9.0,73,0.00,,SKC,0.00,VWS V13.00,2013-05-28 16:01:00,
2013-05-28 12:06:00,78.6,68.8,30.30,South,176,6.0,8.0,72,0.00,,SKC,0.00,VWS V13.00,2013-05-28 16:06:00,
2013-05-28 12:11:00,78.7,68.9,30.30,SSE,167,4.0,8.0,72,0.00,,SKC,0.00,VWS V13.00,2013-05-28 16:11:00,
2013-05-28 12:16:00,78.9,69.1,30.30,SE,143,4.0,7.0,72,0.00,,SKC,0.00,VWS V13.00,2013-05-28 16:16:00,
2013-05-28 12:21:00,79.1,69.3,30.30,SSE,165,5.0,8.0,72,0.00,,SKC,0.00,VWS V13.00,2013-05-28 16:21:00,
2013-05-28 12:26:00,79.3,69.5,30.31,South,175,6.0,9.0,72,0.00,,SKC,0.00,VWS V13.00,2013-05-28 16:26:00,
2013-05-28 12:31:00,79.3,69.1,30.31,SSE,151,6.0,9.0,71,0.00,,SKC,0.00,VWS V13.00,2013-05-28 16:31:00,
2013-05-28 12:36:00,79.0,68.8,30.31,South,175,6.0,9.0,71,0.00,,SKC,0.00,VWS V13.00,2013-05-28 16:36:00,
2013-05-28 12:41:00,78.9,69.1,30.30,South,170,1.0,8.0,72,0.00,,SKC,0.00,VWS V13.00,2013-05-28 16:41:00,
2013-05-28 12:46:00,79.1,69.3,30.31,SSE,149,5.0,8.0,72,0.00,,SKC,0.00,VWS V13.00,2013-05-28 16:46:00,
2013-05-28 12:51:00,79.2,69.0,30.30,SSE,155,4.0,9.0,71,0.00,,SKC,0.00,VWS V13.00,2013-05-28 16:51:00,
2013-05-28 12:56:00,79.3,69.5,30.30,SE,138,6.0,10.0,72,0.00,,SKC,0.00,VWS V13.00,2013-05-28 16:56:00,
2013-05-28 13:01:00,79.3,69.1,30.30,South,176,7.0,8.0,71,0.00,,SKC,0.00,VWS V13.00,2013-05-28 17:01:00,
2013-05-28 13:06:00,79.4,69.2,30.30,SE,138,6.0,9.0,71,0.00,,SKC,0.00,VWS V13.00,2013-05-28 17:06:00,
2013-05-28 13:11:00,79.0,68.8,30.30,ESE,121,4.0,10.0,71,0.00,,SKC,0.00,VWS V13.00,2013-05-28 17:11:00,
2013-05-28 13:16:00,78.7,68.5,30.31,SE,146,4.0,9.0,71,0.00,,SKC,0.00,VWS V13.00,2013-05-28 17:16:00,
2013-05-28 13:21:00,78.7,68.5,30.30,SE,132,4.0,8.0,71,0.00,,SKC,0.00,VWS V13.00,2013-05-28 17:21:00,
2013-05-28 13:26:00,78.8,68.6,30.30,SSE,150,5.0,10.0,71,0.00,,SKC,0.00,VWS V13.00,2013-05-28 17:26:00,
2013-05-28 13:31:00,79.0,68.8,30.30,SE,128,2.0,8.0,71,0.00,,SKC,0.00,VWS V13.00,2013-05-28 17:31:00,
2013-05-28 13:36:00,79.3,69.1,30.30,SSW,198,3.0,8.0,71,0.00,,SKC,0.00,VWS V13.00,2013-05-28 17:36:00,
2013-05-28 13:41:00,79.6,69.4,30.30,SSE,154,5.0,7.0,71,0.00,,SKC,0.00,VWS V13.00,2013-05-28 17:41:00,
2013-05-28 13:46:00,79.8,69.6,30.30,ESE,105,5.0,6.0,71,0.00,,SKC,0.00,VWS V13.00,2013-05-28 17:46:00,
2013-05-28 13:51:00,80.0,69.8,30.30,ESE,115,5.0,8.0,71,0.00,,SKC,0.00,VWS V13.00,2013-05-28 17:51:00,
2013-05-28 13:56:00,79.9,69.7,30.30,SSE,158,9.0,9.0,71,0.00,,SKC,0.00,VWS V13.00,2013-05-28 17:56:00,
2013-05-28 14:01:00,79.5,68.9,30.30,SSE,149,7.0,9.0,70,0.00,,SKC,0.00,VWS V13.00,2013-05-28 18:01:00,
2013-05-28 14:06:00,78.9,68.3,30.30,South,178,5.0,9.0,70,0.00,,SKC,0.00,VWS V13.00,2013-05-28 18:06:00,
2013-05-28 14:11:00,78.6,68.4,30.29,SSE,163,4.0,10.0,71,0.00,,SKC,0.00,VWS V13.00,2013-05-28 18:11:00,
2013-05-28 14:16:00,78.2,68.0,30.29,SE,136,5.0,11.0,71,0.00,,SKC,0.00,VWS V13.00,2013-05-28 18:16:00,
2013-05-28 14:21:00,77.9,67.8,30.29,SSE,156,4.0,10.0,71,0.00,,SKC,0.00,VWS V13.00,2013-05-28 18:21:00,
2013-05-28 14:26:00,77.9,67.8,30.29,SSE,158,2.0,8.0,71,0.00,,SKC,0.00,VWS V13.00,2013-05-28 18:26:00,
2013-05-28 14:31:00,78.2,68.0,30.29,ESE,112,4.0,7.0,71,0.00,,SKC,0.00,VWS V13.00,2013-05-28 18:31:00,
2013-05-28 14:36:00,78.4,68.2,30.28,ESE,122,2.0,8.0,71,0.00,,SKC,0.00,VWS V13.00,2013-05-28 18:36:00,
2013-05-28 14:41:00,78.5,68.3,30.28,SSE,157,7.0,8.0,71,0.00,,SKC,0.00,VWS V13.00,2013-05-28 18:41:00,
2013-05-28 14:46:00,78.5,68.3,30.28,SSE,159,6.0,8.0,71,0.00,,SKC,0.00,VWS V13.00,2013-05-28 18:46:00,
2013-05-28 14:51:00,78.3,68.1,30.28,SE,128,8.0,12.0,71,0.00,,SKC,0.00,VWS V13.00,2013-05-28 18:51:00,
2013-05-28 14:56:00,77.9,67.8,30.27,SSE,150,6.0,11.0,71,0.00,,SKC,0.00,VWS V13.00,2013-05-28 18:56:00,
2013-05-28 15:01:00,77.8,67.7,30.27,SE,136,8.0,11.0,71,0.00,,SKC,0.00,VWS V13.00,2013-05-28 19:01:00,
2013-05-28 15:06:00,78.1,67.9,30.27,SSE,147,1.0,8.0,71,0.00,,SKC,0.00,VWS V13.00,2013-05-28 19:06:00,
2013-05-28 15:11:00,78.5,68.3,30.27,South,169,4.0,10.0,71,0.00,,SKC,0.00,VWS V13.00,2013-05-28 19:11:00,
2013-05-28 15:16:00,78.7,68.5,30.26,SSE,167,5.0,8.0,71,0.00,,SKC,0.00,VWS V13.00,2013-05-28 19:16:00,
2013-05-28 15:21:00,79.0,68.8,30.26,South,190,5.0,8.0,71,0.00,,SKC,0.00,VWS V13.00,2013-05-28 19:21:00,
2013-05-28 15:26:00,79.1,68.9,30.26,SE,136,8.0,11.0,71,0.00,,SKC,0.00,VWS V13.00,2013-05-28 19:26:00,
2013-05-28 15:31:00,78.9,68.7,30.25,South,180,3.0,12.0,71,0.00,,SKC,0.00,VWS V13.00,2013-05-28 19:31:00,
2013-05-28 15:36:00,78.7,68.5,30.25,SSE,167,12.0,12.0,71,0.00,,SKC,0.00,VWS V13.00,2013-05-28 19:36:00,
2013-05-28 15:41:00,78.7,68.5,30.25,East,94,4.0,8.0,71,0.00,,SKC,0.00,VWS V13.00,2013-05-28 19:41:00,
2013-05-28 15:46:00,78.7,68.5,30.25,SSE,167,8.0,10.0,71,0.00,,SKC,0.00,VWS V13.00,2013-05-28 19:46:00,
2013-05-28 15:51:00,78.9,68.7,30.25,South,185,4.0,12.0,71,0.00,,SKC,0.00,VWS V13.00,2013-05-28 19:51:00,
2013-05-28 15:56:00,79.0,68.8,30.25,South,181,3.0,9.0,71,0.00,,SKC,0.00,VWS V13.00,2013-05-28 19:56:00,
2013-05-28 16:01:00,79.1,68.9,30.25,SE,135,0.0,6.0,71,0.00,,SKC,0.00,VWS V13.00,2013-05-28 20:01:00,
2013-05-28 16:06:00,79.3,69.1,30.25,SE,146,4.0,10.0,71,0.00,,SKC,0.00,VWS V13.00,2013-05-28 20:06:00,
2013-05-28 16:11:00,79.2,69.0,30.25,South,169,4.0,10.0,71,0.00,,SKC,0.00,VWS V13.00,2013-05-28 20:11:00,
2013-05-28 16:16:00,79.3,69.1,30.25,SSE,154,0.0,8.0,71,0.00,,SKC,0.00,VWS V13.00,2013-05-28 20:16:00,
2013-05-28 16:21:00,79.5,69.3,30.25,SE,133,0.0,5.0,71,0.00,,SKC,0.00,VWS V13.00,2013-05-28 20:21:00,
2013-05-28 16:26:00,79.5,69.3,30.25,SSW,197,1.0,6.0,71,0.00,,SKC,0.00,VWS V13.00,2013-05-28 20:26:00,
2013-05-28 16:31:00,79.6,69.4,30.25,SSE,150,2.0,9.0,71,0.00,,SKC,0.00,VWS V13.00,2013-05-28 20:31:00,
2013-05-28 16:36:00,79.6,69.4,30.24,South,182,4.0,10.0,71,0.00,,SKC,0.00,VWS V13.00,2013-05-28 20:36:00,
2013-05-28 16:41:00,79.5,69.3,30.24,South,174,2.0,9.0,71,0.00,,SKC,0.00,VWS V13.00,2013-05-28 20:41:00,
2013-05-28 16:46:00,79.5,69.3,30.24,ESE,114,0.0,8.0,71,0.00,,SKC,0.00,VWS V13.00,2013-05-28 20:46:00,
2013-05-28 16:51:00,79.5,69.3,30.24,South,169,0.0,6.0,71,0.00,,SKC,0.00,VWS V13.00,2013-05-28 20:51:00,
2013-05-28 16:56:00,79.5,68.9,30.23,SE,142,5.0,9.0,70,0.00,,SKC,0.00,VWS V13.00,2013-05-28 20:56:00,
2013-05-28 17:01:00,79.2,69.0,30.23,SSE,160,5.0,8.0,71,0.00,,SKC,0.00,VWS V13.00,2013-05-28 21:01:00,
2013-05-28 17:06:00,79.0,68.8,30.24,South,182,3.0,8.0,71,0.00,,SKC,0.00,VWS V13.00,2013-05-28 21:06:00,
2013-05-28 17:11:00,78.9,68.7,30.24,SSE,150,0.0,6.0,71,0.00,,SKC,0.00,VWS V13.00,2013-05-28 21:11:00,
2013-05-28 17:16:00,78.9,68.7,30.24,SW,217,3.0,8.0,71,0.00,,SKC,0.00,VWS V13.00,2013-05-28 21:16:00,
2013-05-28 17:21:00,78.7,68.5,30.24,South,170,0.0,8.0,71,0.00,,SKC,0.00,VWS V13.00,2013-05-28 21:21:00,
2013-05-28 17:26:00,78.7,68.5,30.24,NW,305,2.0,7.0,71,0.00,,SKC,0.00,VWS V13.00,2013-05-28 21:26:00,
2013-05-28 17:31:00,78.7,68.5,30.23,South,186,2.0,7.0,71,0.00,,SKC,0.00,VWS V13.00,2013-05-28 21:31:00,
2013-05-28 17:36:00,78.7,68.5,30.24,South,184,0.0,5.0,71,0.00,,SKC,0.00,VWS V13.00,2013-05-28 21:36:00,
2013-05-28 17:41:00,78.7,68.5,30.24,SW,219,1.0,6.0,71,0.00,,SKC,0.00,VWS V13.00,2013-05-28 21:41:00,
2013-05-28 17:46:00,78.5,68.3,30.23,SSW,194,5.0,8.0,71,0.00,,SKC,0.00,VWS V13.00,2013-05-28 21:46:00,
2013-05-28 17:51:00,78.3,68.1,30.23,South,178,8.0,9.0,71,0.00,,SKC,0.00,VWS V13.00,2013-05-28 21:51:00,
2013-05-28 17:56:00,78.0,67.8,30.23,SSW,200,4.0,9.0,71,0.00,,SKC,0.00,VWS V13.00,2013-05-28 21:56:00,
2013-05-28 18:01:00,77.7,67.6,30.23,South,189,7.0,9.0,71,0.00,,SKC,0.00,VWS V13.00,2013-05-28 22:01:00,
2013-05-28 18:06:00,77.3,67.2,30.23,SSE,155,7.0,9.0,71,0.00,,SKC,0.00,VWS V13.00,2013-05-28 22:06:00,
2013-05-28 18:11:00,76.9,66.8,30.23,SSW,199,3.0,10.0,71,0.00,,SKC,0.00,VWS V13.00,2013-05-28 22:11:00,
2013-05-28 18:16:00,76.5,66.4,30.24,South,182,5.0,10.0,71,0.00,,SKC,0.00,VWS V13.00,2013-05-28 22:16:00,
2013-05-28 18:21:00,76.3,66.6,30.24,South,189,3.0,8.0,72,0.00,,SKC,0.00,VWS V13.00,2013-05-28 22:21:00,
2013-05-28 18:26:00,76.1,66.4,30.23,SSW,197,8.0,8.0,72,0.00,,SKC,0.00,VWS V13.00,2013-05-28 22:26:00,
2013-05-28 18:31:00,75.9,66.2,30.23,SSE,150,4.0,8.0,72,0.00,,SKC,0.00,VWS V13.00,2013-05-28 22:31:00,
2013-05-28 18:36:00,75.7,66.0,30.23,SSE,156,5.0,10.0,72,0.00,,SKC,0.00,VWS V13.00,2013-05-28 22:36:00,
2013-05-28 18:41:00,75.6,65.9,30.23,South,187,3.0,8.0,72,0.00,,SKC,0.00,VWS V13.00,2013-05-28 22:41:00,
2013-05-28 18:46:00,75.4,65.8,30.23,South,177,5.0,8.0,72,0.00,,SKC,0.00,VWS V13.00,2013-05-28 22:46:00,
2013-05-28 18:51:00,75.3,66.1,30.23,SSW,197,4.0,8.0,73,0.00,,SKC,0.00,VWS V13.00,2013-05-28 22:51:00,
2013-05-28 18:56:00,75.1,65.9,30.23,SSW,207,3.0,7.0,73,0.00,,SKC,0.00,VWS V13.00,2013-05-28 22:56:00,
2013-05-28 19:01:00,75.1,65.9,30.23,SE,146,2.0,8.0,73,0.00,,SKC,0.00,VWS V13.00,2013-05-28 23:01:00,
2013-05-28 19:06:00,75.0,65.8,30.23,South,177,2.0,7.0,73,0.00,,SKC,0.00,VWS V13.00,2013-05-28 23:06:00,
2013-05-28 19:11:00,74.9,65.7,30.23,South,190,5.0,6.0,73,0.00,,SKC,0.00,VWS V13.00,2013-05-28 23:11:00,
2013-05-28 19:16:00,74.8,65.6,30.23,South,186,4.0,9.0,73,0.00,,SKC,0.00,VWS V13.00,2013-05-28 23:16:00,
2013-05-28 19:21:00,74.7,65.5,30.24,South,190,1.0,6.0,73,0.00,,SKC,0.00,VWS V13.00,2013-05-28 23:21:00,
2013-05-28 19:26:00,74.5,65.7,30.24,SSW,206,5.0,6.0,74,0.00,,SKC,0.00,VWS V13.00,2013-05-28 23:26:00,
2013-05-28 19:31:00,74.4,65.6,30.24,SSW,198,2.0,6.0,74,0.00,,SKC,0.00,VWS V13.00,2013-05-28 23:31:00,
2013-05-28 19:36:00,74.3,65.5,30.24,SSE,165,4.0,6.0,74,0.00,,SKC,0.00,VWS V13.00,2013-05-28 23:36:00,
2013-05-28 19:41:00,74.2,65.4,30.24,South,184,0.0,5.0,74,0.00,,SKC,0.00,VWS V13.00,2013-05-28 23:41:00,
2013-05-28 19:46:00,74.1,65.3,30.24,SSE,165,0.0,6.0,74,0.00,,SKC,0.00,VWS V13.00,2013-05-28 23:46:00,
2013-05-28 19:51:00,74.0,65.2,30.24,SSE,159,2.0,6.0,74,0.00,,SKC,0.00,VWS V13.00,2013-05-28 23:51:00,
2013-05-28 19:56:00,73.9,65.1,30.24,SSW,205,4.0,6.0,74,0.00,,SKC,0.00,VWS V13.00,2013-05-28 23:56:00,
2013-05-28 20:01:00,73.9,65.1,30.24,South,191,2.0,6.0,74,0.00,,SKC,0.00,VWS V13.00,2013-05-29 00:01:00,
2013-05-28 20:06:00,73.7,65.3,30.24,WSW,242,1.0,5.0,75,0.00,,SKC,0.00,VWS V13.00,2013-05-29 00:06:00,
2013-05-28 20:11:00,73.6,65.2,30.24,South,171,2.0,6.0,75,0.00,,SKC,0.00,VWS V13.00,2013-05-29 00:11:00,
2013-05-28 20:16:00,73.5,65.1,30.24,South,171,0.0,4.0,75,0.00,,SKC,0.00,VWS V13.00,2013-05-29 00:16:00,
2013-05-28 20:21:00,73.4,65.0,30.24,South,180,0.0,5.0,75,0.00,,SKC,0.00,VWS V13.00,2013-05-29 00:21:00,
2013-05-28 20:26:00,73.3,64.9,30.24,SSE,165,4.0,5.0,75,0.00,,SKC,0.00,VWS V13.00,2013-05-29 00:26:00,
2013-05-28 20:31:00,73.2,64.8,30.24,South,169,0.0,4.0,75,0.00,,SKC,0.00,VWS V13.00,2013-05-29 00:31:00,
2013-05-28 20:36:00,73.1,64.7,30.24,South,175,0.0,5.0,75,0.00,,SKC,0.00,VWS V13.00,2013-05-29 00:36:00,
2013-05-28 20:41:00,73.0,64.6,30.24,SSW,208,1.0,5.0,75,0.00,,SKC,0.00,VWS V13.00,2013-05-29 00:41:00,
2013-05-28 20:46:00,72.9,64.9,30.24,SSW,198,0.0,4.0,76,0.00,,SKC,0.00,VWS V13.00,2013-05-29 00:46:00,
2013-05-28 20:51:00,72.7,64.7,30.24,South,183,0.0,5.0,76,0.00,,SKC,0.00,VWS V13.00,2013-05-29 00:51:00,
2013-05-28 20:56:00,72.6,64.6,30.24,South,172,0.0,4.0,76,0.00,,SKC,0.00,VWS V13.00,2013-05-29 00:56:00,
2013-05-28 21:01:00,72.5,64.5,30.24,South,178,1.0,4.0,76,0.00,,SKC,0.00,VWS V13.00,2013-05-29 01:01:00,
2013-05-28 21:06:00,72.4,64.4,30.24,SSW,194,1.0,4.0,76,0.00,,SKC,0.00,VWS V13.00,2013-05-29 01:06:00,
2013-05-28 21:11:00,72.4,64.4,30.24,South,174,1.0,4.0,76,0.00,,SKC,0.00,VWS V13.00,2013-05-29 01:11:00,
2013-05-28 21:16:00,72.3,64.3,30.24,SSW,206,0.0,4.0,76,0.00,,SKC,0.00,VWS V13.00,2013-05-29 01:16:00,
2013-05-28 21:21:00,72.3,64.3,30.24,South,190,1.0,5.0,76,0.00,,SKC,0.00,VWS V13.00,2013-05-29 01:21:00,
2013-05-28 21:26:00,72.2,64.2,30.24,South,181,2.0,5.0,76,0.00,,SKC,0.00,VWS V13.00,2013-05-29 01:26:00,
2013-05-28 21:31:00,72.2,64.2,30.24,SSE,165,1.0,6.0,76,0.00,,SKC,0.00,VWS V13.00,2013-05-29 01:31:00,
2013-05-28 21:36:00,72.2,64.2,30.25,South,170,2.0,5.0,76,0.00,,SKC,0.00,VWS V13.00,2013-05-29 01:36:00,
2013-05-28 21:41:00,72.2,64.2,30.25,South,182,1.0,5.0,76,0.00,,SKC,0.00,VWS V13.00,2013-05-29 01:41:00,
2013-05-28 21:46:00,72.2,64.6,30.25,South,173,4.0,6.0,77,0.00,,SKC,0.00,VWS V13.00,2013-05-29 01:46:00,
2013-05-28 21:51:00,72.1,64.5,30.25,SSW,205,0.0,5.0,77,0.00,,SKC,0.00,VWS V13.00,2013-05-29 01:51:00,
2013-05-28 21:56:00,72.1,64.5,30.25,SSE,166,1.0,4.0,77,0.00,,SKC,0.00,VWS V13.00,2013-05-29 01:56:00,
2013-05-28 22:01:00,72.1,64.5,30.25,South,182,0.0,5.0,77,0.00,,SKC,0.00,VWS V13.00,2013-05-29 02:01:00,
2013-05-28 22:06:00,72.1,64.5,30.25,SSW,193,0.0,6.0,77,0.00,,SKC,0.00,VWS V13.00,2013-05-29 02:06:00,
2013-05-28 22:11:00,72.1,64.5,30.25,South,188,2.0,5.0,77,0.00,,SKC,0.00,VWS V13.00,2013-05-29 02:11:00,
2013-05-28 22:16:00,72.1,64.5,30.25,South,177,1.0,6.0,77,0.00,,SKC,0.00,VWS V13.00,2013-05-29 02:16:00,
2013-05-28 22:21:00,72.1,64.5,30.25,South,170,0.0,4.0,77,0.00,,SKC,0.00,VWS V13.00,2013-05-29 02:21:00,
2013-05-28 22:26:00,72.1,64.5,30.25,SSE,151,1.0,6.0,77,0.00,,SKC,0.00,VWS V13.00,2013-05-29 02:26:00,
2013-05-28 22:31:00,72.2,64.6,30.24,SSE,159,2.0,7.0,77,0.00,,SKC,0.00,VWS V13.00,2013-05-29 02:31:00,
2013-05-28 22:36:00,72.2,64.6,30.24,SSE,161,1.0,7.0,77,0.00,,SKC,0.00,VWS V13.00,2013-05-29 02:36:00,
2013-05-28 22:41:00,72.2,64.6,30.25,South,187,0.0,5.0,77,0.00,,SKC,0.00,VWS V13.00,2013-05-29 02:41:00,
2013-05-28 22:46:00,72.1,64.9,30.25,South,182,0.0,5.0,78,0.00,,SKC,0.00,VWS V13.00,2013-05-29 02:46:00,
2013-05-28 22:51:00,72.0,64.8,30.25,SSE,163,0.0,4.0,78,0.00,,SKC,0.00,VWS V13.00,2013-05-29 02:51:00,
2013-05-28 22:56:00,72.0,64.8,30.24,South,173,4.0,5.0,78,0.00,,SKC,0.00,VWS V13.00,2013-05-29 02:56:00,
2013-05-28 23:01:00,71.9,64.7,30.24,South,170,1.0,4.0,78,0.00,,SKC,0.00,VWS V13.00,2013-05-29 03:01:00,
2013-05-28 23:06:00,71.8,64.6,30.25,South,184,0.0,4.0,78,0.00,,SKC,0.00,VWS V13.00,2013-05-29 03:06:00,
2013-05-28 23:11:00,71.8,64.6,30.25,South,176,1.0,4.0,78,0.00,,SKC,0.00,VWS V13.00,2013-05-29 03:11:00,
2013-05-28 23:16:00,71.7,64.5,30.25,South,171,1.0,5.0,78,0.00,,SKC,0.00,VWS V13.00,2013-05-29 03:16:00,
2013-05-28 23:21:00,71.7,64.5,30.25,South,188,0.0,4.0,78,0.00,,SKC,0.00,VWS V13.00,2013-05-29 03:21:00,
2013-05-28 23:26:00,71.6,64.4,30.24,South,171,1.0,4.0,78,0.00,,SKC,0.00,VWS V13.00,2013-05-29 03:26:00,
2013-05-28 23:31:00,71.6,64.4,30.24,South,177,0.0,5.0,78,0.00,,SKC,0.00,VWS V13.00,2013-05-29 03:31:00,
2013-05-28 23:36:00,71.6,64.4,30.24,South,178,1.0,4.0,78,0.00,,SKC,0.00,VWS V13.00,2013-05-29 03:36:00,
2013-05-28 23:41:00,71.6,64.4,30.24,South,173,0.0,2.0,78,0.00,,SKC,0.00,VWS V13.00,2013-05-29 03:41:00,
2013-05-28 23:46:00,71.6,64.4,30.25,South,174,0.0,2.0,78,0.00,,SKC,0.00,VWS V13.00,2013-05-29 03:46:00,
2013-05-28 23:51:00,71.5,64.3,30.25,South,171,0.0,5.0,78,0.00,,SKC,0.00,VWS V13.00,2013-05-29 03:51:00,
2013-05-28 23:56:00,71.5,64.3,30.25,South,171,0.0,4.0,78,0.00,,SKC,0.00,VWS V13.00,2013-05-29 03:56:00,